YCFN weather

Clifton Airport
Queensland, Australia

Public forecast

Using degrees Celsius for public forecast. Weather courtesy of forecast.io.

Closest aviation weather report (METAR) to Clifton Airport

Closest report is Oakey Airport, 31.6 nm (58.5 km) N. Retrieved 2020/05/29 18:00 UTC (1 hour ago):

YBOK 291800Z AUTO 12003KT 9999 // NCD 09/08 Q1024

Closest aviation forecast (TAF) to Clifton Airport

Closest forecast is RAAF Base Amberley, 49.1 nm (90.9 km) ENE. Retrieved 2020/05/29 18:00 UTC (1 hour ago):

TAF YAMB 291601Z 2918/3012 VRB03KT 9999 FEW030 FM300000 13012KT 9999 SCT035 FM300900 VRB03KT 9999 SCT030